createdAt,value
2018-07-19T00:02:20.919Z,55.84
2018-07-19T00:04:52.315Z,55.98
2018-07-19T00:07:24.201Z,55.05
2018-07-19T00:09:55.647Z,54.75
2018-07-19T00:12:27.529Z,55.94
2018-07-19T00:14:59.367Z,56.14
2018-07-19T00:17:32.691Z,55.96
2018-07-19T00:20:04.375Z,54.93
2018-07-19T00:22:36.219Z,56.40
2018-07-19T00:25:07.798Z,55.70
2018-07-19T00:27:39.812Z,55.73
2018-07-19T00:30:11.609Z,56.41
2018-07-19T00:32:43.140Z,56.70
2018-07-19T00:35:14.876Z,56.10
2018-07-19T00:37:47.696Z,56.02
2018-07-19T00:40:19.417Z,56.92
2018-07-19T00:42:51.188Z,56.84
2018-07-19T00:45:23.186Z,56.43
2018-07-19T00:47:55.188Z,56.72
2018-07-19T00:50:26.835Z,56.68
2018-07-19T00:52:58.508Z,57.32
2018-07-19T00:55:30.183Z,57.73
2018-07-19T00:58:01.775Z,58.05
2018-07-19T01:00:33.548Z,57.72
2018-07-19T01:03:05.636Z,56.80
2018-07-19T01:05:37.381Z,56.94
2018-07-19T01:08:09.234Z,56.48
2018-07-19T01:10:40.944Z,55.84
2018-07-19T01:13:12.577Z,55.81
2018-07-19T01:15:44.227Z,53.42
2018-07-19T01:18:15.758Z,53.38
2018-07-19T01:20:47.509Z,53.58
2018-07-19T01:23:19.140Z,52.83
2018-07-19T01:25:50.855Z,54.79
2018-07-19T01:28:22.633Z,50.75
2018-07-19T01:30:54.606Z,53.11
2018-07-19T01:33:26.206Z,54.94
2018-07-19T01:35:57.889Z,56.48
2018-07-19T01:38:30.113Z,57.46
2018-07-19T01:41:05.952Z,55.10
2018-07-19T01:43:37.712Z,55.47
2018-07-19T01:46:09.538Z,54.69
2018-07-19T01:48:41.293Z,55.11
2018-07-19T01:51:13.012Z,56.11
2018-07-19T01:53:44.971Z,55.88
2018-07-19T01:56:16.665Z,56.85
2018-07-19T01:58:48.226Z,58.66
2018-07-19T02:01:19.936Z,57.08
2018-07-19T02:03:51.819Z,58.16
2018-07-19T02:06:23.483Z,56.74
2018-07-19T02:08:55.288Z,58.20
2018-07-19T02:11:26.865Z,59.22
2018-07-19T02:13:58.872Z,58.28
2018-07-19T02:16:30.459Z,59.08
2018-07-19T02:19:02.381Z,56.44
2018-07-19T02:21:33.919Z,61.62
2018-07-19T02:24:05.895Z,60.17
2018-07-19T02:26:37.303Z,59.52
2018-07-19T02:29:09.444Z,60.04
2018-07-19T02:31:41.130Z,58.68
2018-07-19T02:34:12.834Z,59.80
2018-07-19T02:36:44.591Z,58.39
2018-07-19T02:39:17.288Z,59.56
2018-07-19T02:41:49.106Z,60.28
2018-07-19T02:44:21.027Z,59.66
2018-07-19T02:46:52.804Z,61.48
2018-07-19T02:49:24.513Z,58.94
2018-07-19T02:51:56.318Z,59.22
2018-07-19T02:54:28.197Z,60.75
2018-07-19T02:56:59.868Z,62.43
2018-07-19T02:59:31.663Z,61.83
2018-07-19T03:02:03.365Z,60.84
2018-07-19T03:04:35.200Z,61.37
2018-07-19T03:07:06.885Z,61.72
2018-07-19T03:09:38.789Z,59.10
2018-07-19T03:12:10.323Z,61.76
2018-07-19T03:14:42.314Z,60.77
2018-07-19T03:17:13.930Z,62.39
2018-07-19T03:19:45.695Z,59.50
2018-07-19T03:22:17.208Z,60.86
2018-07-19T03:24:49.195Z,60.03
2018-07-19T03:27:20.979Z,59.09
2018-07-19T03:29:52.764Z,60.12
2018-07-19T03:32:24.438Z,63.51
2018-07-19T03:34:56.244Z,63.96
2018-07-19T03:37:27.944Z,63.04
2018-07-19T03:40:00.842Z,61.04
2018-07-19T03:42:32.756Z,61.01
2018-07-19T03:45:05.330Z,60.07
2018-07-19T03:47:37.078Z,59.28
2018-07-19T03:50:09.144Z,60.23
2018-07-19T03:52:41.065Z,61.11
2018-07-19T03:55:12.861Z,59.41
2018-07-19T03:57:44.704Z,59.97
2018-07-19T04:00:16.688Z,57.49
2018-07-19T04:02:48.144Z,58.62
2018-07-19T04:05:20.210Z,58.68
2018-07-19T04:07:51.972Z,59.46
2018-07-19T04:10:24.396Z,59.18
2018-07-19T04:12:56.078Z,58.35
2018-07-19T04:15:28.727Z,57.40
2018-07-19T04:18:00.376Z,58.26
2018-07-19T04:20:33.169Z,60.12
2018-07-19T04:23:04.960Z,59.55
2018-07-19T04:25:36.990Z,59.95
2018-07-19T04:28:08.426Z,60.29
2018-07-19T04:30:40.227Z,59.82
2018-07-19T04:33:11.757Z,59.42
2018-07-19T04:35:43.605Z,62.32
2018-07-19T04:38:15.510Z,61.45
2018-07-19T04:40:47.695Z,60.53
2018-07-19T04:43:19.480Z,61.41
2018-07-19T04:45:51.295Z,62.15
2018-07-19T04:48:22.913Z,62.04
2018-07-19T04:50:54.813Z,61.89
2018-07-19T04:53:26.669Z,62.88
2018-07-19T04:55:58.435Z,62.97
2018-07-19T04:58:29.903Z,62.56
2018-07-19T05:01:01.841Z,63.37
2018-07-19T05:03:33.680Z,48.85
2018-07-19T05:06:05.584Z,49.36
2018-07-19T05:08:37.690Z,52.70
2018-07-19T05:11:09.676Z,60.76
2018-07-19T05:13:41.545Z,62.27
2018-07-19T05:16:13.155Z,62.54
2018-07-19T05:18:44.765Z,62.02
2018-07-19T05:21:16.713Z,62.43
2018-07-19T05:23:48.438Z,62.61
2018-07-19T05:26:20.176Z,60.56
2018-07-19T05:28:52.059Z,60.82
2018-07-19T05:31:23.730Z,63.46
2018-07-19T05:33:55.459Z,62.39
2018-07-19T05:36:27.034Z,62.96
2018-07-19T05:38:58.900Z,64.36
2018-07-19T05:41:30.974Z,65.55
2018-07-19T05:44:02.978Z,64.96
2018-07-19T05:46:34.937Z,62.88
2018-07-19T05:49:06.990Z,64.92
2018-07-19T05:51:38.578Z,62.98
2018-07-19T05:54:10.439Z,63.29
2018-07-19T05:56:42.445Z,62.95
2018-07-19T05:59:14.035Z,64.48
2018-07-19T06:01:45.862Z,63.81
2018-07-19T06:04:17.572Z,62.65
2018-07-19T06:06:49.749Z,63.23
2018-07-19T06:09:21.586Z,63.54
2018-07-19T06:11:53.228Z,63.41
2018-07-19T06:14:25.053Z,59.87
2018-07-19T06:16:57.185Z,61.66
2018-07-19T06:19:29.311Z,60.31
2018-07-19T06:22:01.136Z,61.17
2018-07-19T06:24:32.876Z,59.80
2018-07-19T06:27:10.111Z,60.71
2018-07-19T06:29:41.871Z,62.64
2018-07-19T06:32:14.660Z,60.99
2018-07-19T06:34:46.564Z,61.06
2018-07-19T06:37:18.485Z,60.08
2018-07-19T06:39:50.193Z,55.75
2018-07-19T06:42:22.048Z,58.95
2018-07-19T06:44:53.973Z,58.93
2018-07-19T06:47:25.914Z,58.07
2018-07-19T06:49:57.510Z,58.74
2018-07-19T06:52:29.166Z,58.59
2018-07-19T06:55:01.072Z,58.68
2018-07-19T06:57:33.142Z,59.00
2018-07-19T07:00:05.053Z,58.26
2018-07-19T07:02:37.094Z,58.73
2018-07-19T07:05:08.755Z,58.29
2018-07-19T07:07:41.976Z,59.27
2018-07-19T07:10:13.776Z,58.71
2018-07-19T07:12:45.722Z,58.23
2018-07-19T07:15:16.857Z,58.33
2018-07-19T07:17:48.264Z,58.59
2018-07-19T07:20:20.162Z,57.93
2018-07-19T07:22:52.304Z,58.40
2018-07-19T07:25:24.011Z,58.44
2018-07-19T07:27:55.868Z,58.41
2018-07-19T07:30:28.004Z,58.56
2018-07-19T07:33:00.063Z,58.70
2018-07-19T07:35:31.761Z,59.57
2018-07-19T07:38:04.159Z,60.10
2018-07-19T07:40:35.997Z,62.46
2018-07-19T07:43:09.988Z,60.88
2018-07-19T07:45:42.700Z,60.19
2018-07-19T07:48:14.448Z,60.55
2018-07-19T07:50:46.535Z,63.52
2018-07-19T07:53:18.350Z,64.39
2018-07-19T07:55:50.195Z,61.97
2018-07-19T07:58:22.464Z,59.69
2018-07-19T08:00:54.324Z,61.62
2018-07-19T08:03:26.568Z,63.02
2018-07-19T08:05:58.306Z,65.01
2018-07-19T08:08:30.629Z,63.59
2018-07-19T08:11:02.493Z,64.77
2018-07-19T08:13:34.348Z,62.90
2018-07-19T08:16:06.263Z,62.52
2018-07-19T08:18:38.309Z,63.09
2018-07-19T08:21:10.116Z,62.53
2018-07-19T08:23:41.998Z,61.18
2018-07-19T08:26:13.628Z,62.48
2018-07-19T08:28:45.560Z,61.65
2018-07-19T08:31:17.640Z,60.94
2018-07-19T08:33:49.955Z,60.48
2018-07-19T08:36:22.371Z,60.20
2018-07-19T08:38:54.032Z,59.65
2018-07-19T08:41:25.838Z,59.70
2018-07-19T08:43:57.635Z,58.74
2018-07-19T08:46:29.763Z,60.47
2018-07-19T08:49:01.605Z,59.18
2018-07-19T08:51:33.590Z,60.94
2018-07-19T08:54:05.771Z,60.99
2018-07-19T08:56:37.412Z,59.86
2018-07-19T08:59:09.728Z,60.48
2018-07-19T09:01:42.057Z,61.63
2018-07-19T09:04:13.852Z,61.80
2018-07-19T09:06:45.711Z,62.55
2018-07-19T09:09:18.135Z,62.24
2018-07-19T09:11:49.988Z,61.32
2018-07-19T09:14:21.981Z,62.75
2018-07-19T09:16:54.035Z,62.19
2018-07-19T09:19:26.149Z,62.70
2018-07-19T09:21:57.902Z,63.36
2018-07-19T09:24:29.800Z,61.50
2018-07-19T09:27:01.506Z,48.03
2018-07-19T09:29:33.475Z,56.17
2018-07-19T09:32:06.933Z,58.39
2018-07-19T09:34:39.376Z,60.54
2018-07-19T09:37:12.195Z,64.08
2018-07-19T09:39:44.206Z,64.16
2018-07-19T09:42:15.944Z,63.11
2018-07-19T09:44:47.734Z,63.23
2018-07-19T09:47:19.565Z,63.54
2018-07-19T09:49:52.094Z,63.04
2018-07-19T09:52:24.195Z,65.39
2018-07-19T09:55:02.206Z,63.81
2018-07-19T09:57:33.692Z,62.73
2018-07-19T10:00:06.048Z,62.98
2018-07-19T10:02:37.912Z,61.97
2018-07-19T10:05:09.993Z,62.91
2018-07-19T10:07:42.035Z,63.34
2018-07-19T10:10:13.848Z,62.49
2018-07-19T10:12:46.250Z,61.51
2018-07-19T10:15:18.163Z,62.30
2018-07-19T10:17:50.698Z,61.90
2018-07-19T10:20:22.764Z,63.19
2018-07-19T10:22:54.489Z,62.16
2018-07-19T10:25:26.438Z,60.85
2018-07-19T10:27:58.547Z,62.40
2018-07-19T10:30:30.447Z,61.35
2018-07-19T10:33:03.531Z,60.56
2018-07-19T10:35:37.494Z,60.24
2018-07-19T10:38:10.570Z,60.63
2018-07-19T10:40:42.631Z,60.71
2018-07-19T10:43:14.529Z,60.57
2018-07-19T10:45:46.530Z,59.49
2018-07-19T10:48:18.435Z,59.88
2018-07-19T10:50:50.467Z,58.70
2018-07-19T10:53:22.360Z,59.83
2018-07-19T10:55:54.525Z,58.29
2018-07-19T10:58:26.502Z,59.06
2018-07-19T11:00:58.443Z,57.50
2018-07-19T11:03:30.118Z,58.54
2018-07-19T11:06:01.887Z,58.47
2018-07-19T11:08:33.751Z,58.79
2018-07-19T11:11:05.399Z,59.30
2018-07-19T11:13:37.559Z,57.99
2018-07-19T11:16:09.551Z,58.40
2018-07-19T11:18:41.456Z,57.34
2018-07-19T11:21:13.505Z,57.13
2018-07-19T11:23:45.294Z,58.29
2018-07-19T11:26:17.128Z,57.46
2018-07-19T11:28:48.790Z,58.37
2018-07-19T11:31:20.892Z,58.76
2018-07-19T11:33:52.676Z,57.96
2018-07-19T11:36:24.599Z,59.45
2018-07-19T11:38:56.821Z,60.30
2018-07-19T11:41:28.930Z,58.85
2018-07-19T11:44:00.600Z,58.71
2018-07-19T11:46:32.425Z,59.43
2018-07-19T11:49:13.019Z,58.26
2018-07-19T11:51:44.707Z,59.08
2018-07-19T11:54:16.306Z,58.10
2018-07-19T11:56:48.264Z,58.82
2018-07-19T11:59:20.163Z,59.57
2018-07-19T12:01:51.747Z,56.10
2018-07-19T12:04:23.597Z,56.77
2018-07-19T12:06:55.457Z,58.31
2018-07-19T12:09:27.052Z,57.37
2018-07-19T12:11:58.954Z,50.63
2018-07-19T12:14:30.520Z,53.89
2018-07-19T12:17:02.278Z,57.01
2018-07-19T12:19:33.997Z,57.93
2018-07-19T12:22:05.805Z,57.70
2018-07-19T12:24:37.558Z,58.91
2018-07-19T12:27:09.378Z,59.47
2018-07-19T12:29:41.099Z,58.70
2018-07-19T12:32:13.049Z,59.37
2018-07-19T12:34:44.814Z,60.13
2018-07-19T12:37:16.649Z,58.49
2018-07-19T12:39:48.730Z,59.71
2018-07-19T12:42:20.442Z,59.50
2018-07-19T12:44:52.196Z,60.31
2018-07-19T12:47:24.108Z,59.46
2018-07-19T12:49:55.838Z,61.06
2018-07-19T12:52:27.637Z,58.96
2018-07-19T12:54:59.524Z,59.79
2018-07-19T12:57:31.110Z,59.46
2018-07-19T13:00:02.836Z,59.18
2018-07-19T13:02:35.318Z,60.05
2018-07-19T13:05:07.351Z,59.50
2018-07-19T13:07:39.480Z,59.29
2018-07-19T13:10:11.341Z,59.49
2018-07-19T13:12:43.194Z,58.71
2018-07-19T13:15:15.006Z,59.93
2018-07-19T13:17:46.933Z,62.26
2018-07-19T13:20:18.573Z,62.93
2018-07-19T13:22:50.512Z,61.59
2018-07-19T13:25:22.205Z,61.94
2018-07-19T13:27:54.191Z,62.25
2018-07-19T13:30:26.296Z,61.33
2018-07-19T13:32:57.864Z,61.36
2018-07-19T13:35:29.773Z,61.93
2018-07-19T13:38:01.485Z,62.94
2018-07-19T13:40:33.252Z,63.38
2018-07-19T13:43:05.463Z,62.52
2018-07-19T13:45:37.680Z,62.47
2018-07-19T13:48:09.230Z,62.74
2018-07-19T13:50:40.889Z,61.60
2018-07-19T13:53:33.572Z,63.07
2018-07-19T13:56:07.228Z,63.49
2018-07-19T13:58:39.699Z,64.18
2018-07-19T14:01:11.373Z,63.25
2018-07-19T14:03:43.160Z,62.95
2018-07-19T14:06:14.778Z,62.78
2018-07-19T14:08:48.082Z,62.54
2018-07-19T14:11:19.974Z,62.28
2018-07-19T14:13:51.780Z,61.69
2018-07-19T14:16:23.458Z,56.16
2018-07-19T14:18:55.427Z,57.77
2018-07-19T14:21:26.730Z,59.18
2018-07-19T14:23:58.114Z,58.54
2018-07-19T14:26:29.347Z,60.08
2018-07-19T14:29:01.303Z,58.74
2018-07-19T14:31:33.056Z,60.15
2018-07-19T14:34:05.082Z,59.42
2018-07-19T14:36:37.141Z,60.67
2018-07-19T14:39:14.317Z,60.69
2018-07-19T14:41:46.169Z,59.77
2018-07-19T14:44:18.107Z,62.01
2018-07-19T14:46:49.689Z,60.80
2018-07-19T14:49:21.297Z,60.62
2018-07-19T14:51:52.928Z,61.17
2018-07-19T14:54:24.454Z,61.25
2018-07-19T14:56:56.231Z,60.68
2018-07-19T14:59:27.989Z,59.44
2018-07-19T15:01:59.792Z,59.87
2018-07-19T15:04:31.691Z,59.52
2018-07-19T15:07:03.582Z,61.20
2018-07-19T15:09:36.121Z,62.35
2018-07-19T15:12:08.297Z,61.38
2018-07-19T15:14:40.380Z,60.76
2018-07-19T15:17:12.246Z,61.31
2018-07-19T15:19:44.152Z,61.33
2018-07-19T15:22:16.254Z,61.10
2018-07-19T15:24:47.751Z,60.33
2018-07-19T15:27:19.618Z,60.56
2018-07-19T15:29:51.790Z,61.65
2018-07-19T15:32:23.624Z,59.25
2018-07-19T15:34:55.427Z,59.24
2018-07-19T15:37:27.447Z,61.05
2018-07-19T15:39:59.405Z,59.99
2018-07-19T15:42:31.296Z,59.61
2018-07-19T15:45:02.849Z,60.34
2018-07-19T15:47:34.788Z,59.02
2018-07-19T15:50:06.893Z,59.29
2018-07-19T15:52:38.499Z,59.10
2018-07-19T15:55:10.357Z,62.11
2018-07-19T15:57:42.031Z,60.37
2018-07-19T16:00:13.905Z,61.05
2018-07-19T16:02:45.861Z,61.15
2018-07-19T16:05:17.785Z,62.22
2018-07-19T16:07:49.679Z,60.59
2018-07-19T16:10:23.201Z,62.09
2018-07-19T16:12:55.206Z,54.14
2018-07-19T16:15:26.825Z,51.70
2018-07-19T16:17:58.697Z,55.06
2018-07-19T16:20:30.576Z,55.51
2018-07-19T16:23:02.266Z,56.98
2018-07-19T16:25:34.024Z,57.65
2018-07-19T16:28:05.512Z,59.00
2018-07-19T16:30:37.348Z,59.13
2018-07-19T16:33:08.827Z,57.65
2018-07-19T16:35:40.665Z,58.43
2018-07-19T16:38:12.201Z,59.42
2018-07-19T16:40:44.254Z,58.58
2018-07-19T16:43:15.877Z,54.71
2018-07-19T16:45:48.169Z,55.56
2018-07-19T16:48:19.777Z,55.56
2018-07-19T16:50:51.816Z,57.16
2018-07-19T16:53:23.530Z,57.95
2018-07-19T16:55:55.198Z,58.93
2018-07-19T16:58:26.821Z,57.55
2018-07-19T17:00:58.601Z,59.49
2018-07-19T17:03:30.288Z,59.40
2018-07-19T17:06:02.485Z,59.28
2018-07-19T17:08:34.258Z,58.56
2018-07-19T17:11:07.788Z,59.08
2018-07-19T17:13:39.563Z,58.38
2018-07-19T17:16:11.930Z,59.49
2018-07-19T17:18:44.062Z,60.06
2018-07-19T17:21:16.009Z,60.82
2018-07-19T17:23:48.099Z,59.78
2018-07-19T17:26:19.999Z,58.96
2018-07-19T17:28:51.662Z,59.56
2018-07-19T17:31:23.979Z,59.80
2018-07-19T17:33:55.863Z,58.73
2018-07-19T17:36:27.751Z,57.90
2018-07-19T17:38:59.371Z,59.32
2018-07-19T17:41:31.577Z,58.91
2018-07-19T17:44:03.061Z,59.56
2018-07-19T17:46:35.245Z,59.48
2018-07-19T17:49:07.560Z,58.04
2018-07-19T17:51:39.363Z,59.50
2018-07-19T17:54:10.016Z,60.40
2018-07-19T17:56:42.292Z,58.64
2018-07-19T17:59:14.165Z,58.87
2018-07-19T18:01:46.173Z,59.07
2018-07-19T18:04:18.123Z,57.99
2018-07-19T18:06:49.858Z,56.41
2018-07-19T18:09:21.310Z,55.87
2018-07-19T18:11:54.241Z,57.62
2018-07-19T18:14:26.060Z,58.57
2018-07-19T18:16:57.935Z,57.21
2018-07-19T18:19:29.799Z,58.04
2018-07-19T18:22:01.663Z,56.74
2018-07-19T18:24:33.489Z,54.81
2018-07-19T18:27:05.107Z,55.08
2018-07-19T18:29:36.856Z,56.06
2018-07-19T18:32:08.649Z,56.54
2018-07-19T18:34:40.651Z,56.99
2018-07-19T18:37:12.352Z,56.86
2018-07-19T18:39:43.940Z,54.51
2018-07-19T18:42:15.642Z,55.74
2018-07-19T18:44:47.412Z,57.86
2018-07-19T18:47:19.256Z,57.82
2018-07-19T18:49:51.053Z,58.18
2018-07-19T18:52:22.884Z,58.69
2018-07-19T18:54:54.565Z,59.13
2018-07-19T18:57:26.403Z,59.18
2018-07-19T18:59:57.876Z,56.64
2018-07-19T19:02:29.710Z,59.46
2018-07-19T19:05:01.331Z,60.42
2018-07-19T19:07:33.259Z,60.85
2018-07-19T19:10:05.210Z,62.18
2018-07-19T19:12:37.383Z,60.76
2018-07-19T19:15:10.033Z,61.22
2018-07-19T19:17:41.790Z,60.70
2018-07-19T19:20:13.649Z,60.87
2018-07-19T19:22:45.482Z,59.07
2018-07-19T19:25:17.007Z,60.55
2018-07-19T19:27:48.715Z,60.36
2018-07-19T19:30:20.436Z,61.53
2018-07-19T19:32:52.247Z,61.86
2018-07-19T19:35:24.134Z,62.84
2018-07-19T19:37:55.694Z,61.29
2018-07-19T19:40:27.310Z,62.02
2018-07-19T19:42:59.085Z,61.92
2018-07-19T19:45:30.918Z,62.09
2018-07-19T19:48:03.570Z,62.62
2018-07-19T19:50:35.371Z,62.13
2018-07-19T19:53:07.273Z,61.03
2018-07-19T19:55:38.882Z,61.35
2018-07-19T19:58:10.777Z,61.31
2018-07-19T20:00:42.401Z,61.56
2018-07-19T20:03:14.345Z,60.86
2018-07-19T20:05:45.827Z,60.63
2018-07-19T20:08:17.578Z,61.42
2018-07-19T20:10:49.347Z,61.80
2018-07-19T20:13:22.294Z,61.64
2018-07-19T20:15:54.493Z,61.25
2018-07-19T20:18:26.126Z,62.43
2018-07-19T20:20:57.873Z,61.66
2018-07-19T20:23:30.092Z,62.49
2018-07-19T20:26:01.823Z,62.95
2018-07-19T20:28:33.577Z,62.64
2018-07-19T20:31:05.330Z,62.00
2018-07-19T20:33:37.263Z,62.45
2018-07-19T20:36:09.077Z,62.35
2018-07-19T20:38:40.892Z,62.03
2018-07-19T20:41:12.595Z,61.95
2018-07-19T20:43:44.356Z,62.57
2018-07-19T20:46:16.121Z,63.18
2018-07-19T20:48:47.889Z,61.90
2018-07-19T20:51:19.414Z,63.11
2018-07-19T20:53:51.170Z,64.54
2018-07-19T20:56:22.935Z,64.31
2018-07-19T20:58:54.787Z,64.80
2018-07-19T21:01:26.406Z,64.14
2018-07-19T21:03:58.236Z,63.21
2018-07-19T21:06:29.987Z,61.79
2018-07-19T21:09:01.845Z,63.02
2018-07-19T21:11:33.642Z,63.11
2018-07-19T21:14:06.361Z,61.54
2018-07-19T21:16:37.935Z,61.84
2018-07-19T21:19:09.670Z,61.68
2018-07-19T21:21:41.310Z,61.27
2018-07-19T21:24:13.188Z,62.08
2018-07-19T21:26:44.829Z,60.98
2018-07-19T21:29:16.678Z,61.87
2018-07-19T21:31:48.367Z,61.72
2018-07-19T21:34:20.187Z,61.02
2018-07-19T21:36:51.870Z,62.96
2018-07-19T21:39:23.801Z,62.87
2018-07-19T21:41:55.668Z,61.60
2018-07-19T21:44:27.463Z,61.46
2018-07-19T21:46:59.122Z,62.34
2018-07-19T21:49:30.926Z,62.78
2018-07-19T21:52:02.584Z,63.15
2018-07-19T21:54:34.416Z,62.44
2018-07-19T21:57:06.518Z,62.96
2018-07-19T21:59:38.532Z,62.86
2018-07-19T22:02:10.594Z,63.93
2018-07-19T22:04:42.387Z,63.91
2018-07-19T22:07:14.195Z,62.81
2018-07-19T22:09:46.011Z,62.35
2018-07-19T22:12:17.666Z,63.89
2018-07-19T22:14:49.933Z,65.05
2018-07-19T22:17:21.850Z,64.60
2018-07-19T22:19:53.725Z,64.80
2018-07-19T22:22:25.453Z,64.86
2018-07-19T22:24:57.296Z,63.82
2018-07-19T22:27:29.131Z,64.87
2018-07-19T22:30:00.826Z,65.50
2018-07-19T22:32:32.596Z,64.75
2018-07-19T22:35:04.664Z,64.23
2018-07-19T22:37:36.339Z,63.91
2018-07-19T22:40:08.187Z,64.02
2018-07-19T22:42:39.617Z,65.18
2018-07-19T22:45:11.428Z,64.77
2018-07-19T22:47:42.989Z,65.22
2018-07-19T22:50:14.744Z,64.24
2018-07-19T22:52:46.282Z,65.03
2018-07-19T22:55:18.114Z,64.69
2018-07-19T22:57:49.702Z,65.38
2018-07-19T23:00:21.465Z,65.37
2018-07-19T23:02:53.080Z,65.82
2018-07-19T23:05:24.936Z,66.07
2018-07-19T23:07:56.560Z,65.17
2018-07-19T23:10:28.375Z,66.36
2018-07-19T23:13:00.076Z,65.94
2018-07-19T23:15:33.342Z,65.72
2018-07-19T23:18:05.102Z,65.61
2018-07-19T23:20:36.973Z,66.22
2018-07-19T23:23:09.053Z,65.87
2018-07-19T23:25:40.729Z,65.94
2018-07-19T23:28:12.812Z,64.86
2018-07-19T23:30:45.359Z,65.80
2018-07-19T23:33:17.366Z,65.25
2018-07-19T23:35:56.162Z,63.38
2018-07-19T23:38:38.244Z,63.90
2018-07-19T23:41:15.912Z,65.09
2018-07-19T23:43:51.607Z,63.47
2018-07-19T23:46:28.691Z,65.55
2018-07-19T23:49:04.992Z,63.95
2018-07-19T23:51:38.633Z,63.49
2018-07-19T23:54:10.464Z,64.04
2018-07-19T23:56:42.800Z,64.05
2018-07-19T23:59:14.360Z,63.07
